Time;durP1;ratioP1;P1;durP2;ratioP2;P2;SDS_P1;SDS_P2;PMS_P1;PMS_P2;Temp;Humidity;BMP_temperature;BMP_pressure;BME280_temperature;BME280_humidity;BME280_pressure;Samples;Min_cycle;Max_cycle;Signal;HPM_P1;HPM_P2
2021/03/26 00:00:34;;;;;;;59.97;32.13;;;;;;;-0.05;100.00;97962.38;4998522;28;20040;-85
2021/03/26 00:03:00;;;;;;;61.00;31.63;;;;;;;-0.11;99.74;97965.06;4998687;28;20417;-85
2021/03/26 00:05:26;;;;;;;105.75;50.08;;;;;;;-0.14;99.98;97957.22;4998505;28;20037;-85
2021/03/26 00:07:52;;;;;;;102.32;46.00;;;;;;;-0.07;99.14;97964.16;4998561;28;20033;-85
2021/03/26 00:10:18;;;;;;;122.43;50.25;;;;;;;-0.08;98.52;97973.78;5015297;28;20032;-85
2021/03/26 00:12:44;;;;;;;56.47;26.40;;;;;;;-0.10;98.48;97966.81;4998876;28;20037;-85
2021/03/26 00:15:11;;;;;;;47.00;22.77;;;;;;;-0.19;98.46;97961.69;4998259;28;20394;-85
2021/03/26 00:17:36;;;;;;;49.60;24.05;;;;;;;-0.12;98.66;97968.59;4998181;28;20057;-85
2021/03/26 00:20:04;;;;;;;59.08;29.60;;;;;;;-0.19;98.49;97965.19;4998041;28;20029;-85
2021/03/26 00:22:30;;;;;;;53.35;26.88;;;;;;;-0.23;99.03;97962.63;4998678;28;20075;-85
2021/03/26 00:24:55;;;;;;;49.83;25.95;;;;;;;-0.21;100.00;97960.81;5014578;28;20029;-84
2021/03/26 00:27:21;;;;;;;49.55;25.35;;;;;;;-0.26;100.00;97970.53;4998563;28;20033;-85
2021/03/26 00:29:46;;;;;;;45.60;23.42;;;;;;;-0.28;100.00;97967.94;4998604;28;20061;-85
2021/03/26 00:32:12;;;;;;;60.50;31.17;;;;;;;-0.21;100.00;97974.84;4990701;28;20021;-84
2021/03/26 00:34:38;;;;;;;58.63;28.23;;;;;;;-0.27;100.00;97971.41;4998400;28;20037;-85
2021/03/26 00:37:04;;;;;;;75.68;34.22;;;;;;;-0.30;100.00;97966.19;4998160;28;20034;-85
2021/03/26 00:39:29;;;;;;;67.45;33.58;;;;;;;-0.31;100.00;97975.00;5014976;28;20099;-85
2021/03/26 00:41:55;;;;;;;72.53;35.90;;;;;;;-0.34;100.00;97980.28;5014486;28;20033;-84
2021/03/26 00:44:21;;;;;;;66.32;32.55;;;;;;;-0.36;100.00;97966.28;4998359;28;20025;-86
2021/03/26 00:46:46;;;;;;;80.53;40.28;;;;;;;-0.40;100.00;97975.09;5014003;28;20075;-86
2021/03/26 00:49:12;;;;;;;80.63;39.35;;;;;;;-0.33;100.00;97977.63;5014596;28;20025;-86
2021/03/26 00:51:38;;;;;;;82.35;39.08;;;;;;;-0.40;100.00;97975.94;4997782;28;20141;-85
2021/03/26 00:54:04;;;;;;;80.60;38.42;;;;;;;-0.43;100.00;97972.50;4998499;28;20033;-86
2021/03/26 00:56:30;;;;;;;77.97;37.35;;;;;;;-0.41;100.00;97968.09;5014949;28;20358;-86
2021/03/26 00:58:56;;;;;;;75.40;35.85;;;;;;;-0.47;100.00;97962.91;5014620;28;20063;-85
2021/03/26 01:01:22;;;;;;;77.05;35.08;;;;;;;-0.47;100.00;97973.44;4998156;28;20420;-85
2021/03/26 01:03:47;;;;;;;74.43;35.58;;;;;;;-0.48;100.00;97966.41;4998509;28;20116;-87
2021/03/26 01:06:14;;;;;;;63.78;31.90;;;;;;;-0.50;100.00;97968.22;5014847;28;20033;-86
2021/03/26 01:08:40;;;;;;;63.85;31.90;;;;;;;-0.59;100.00;97964.81;4998921;28;20531;-86
2021/03/26 01:11:31;;;;;;;66.40;32.08;;;;;;;-0.52;100.00;97983.13;4998320;28;20030;-86
2021/03/26 01:13:57;;;;;;;50.08;25.27;;;;;;;-0.64;100.00;97982.34;5017726;28;20029;-86
2021/03/26 01:16:25;;;;;;;44.78;23.27;;;;;;;-0.61;100.00;97976.19;5001614;28;20393;-86
2021/03/26 01:18:50;;;;;;;47.30;23.65;;;;;;;-0.74;100.00;97980.72;5001889;28;20034;-86
2021/03/26 01:21:19;;;;;;;44.08;21.13;;;;;;;-0.75;100.00;97968.50;5001724;28;20040;-86
2021/03/26 01:23:46;;;;;;;49.20;23.15;;;;;;;-0.74;100.00;97977.25;5001151;28;20116;-86
2021/03/26 01:26:11;;;;;;;46.42;23.63;;;;;;;-0.77;100.00;97990.41;5001231;28;20038;-86
2021/03/26 01:28:37;;;;;;;46.22;24.00;;;;;;;-0.79;100.00;97986.91;5002009;28;20468;-86
2021/03/26 01:31:02;;;;;;;50.53;24.00;;;;;;;-0.89;100.00;97970.38;5000666;28;20068;-85
2021/03/26 01:33:28;;;;;;;44.95;21.88;;;;;;;-0.86;100.00;97980.00;5001698;28;20112;-85
2021/03/26 01:35:55;;;;;;;41.95;21.77;;;;;;;-0.82;100.00;97986.94;5001623;28;20064;-86
2021/03/26 01:38:21;;;;;;;35.45;19.88;;;;;;;-0.97;100.00;97981.84;5001401;28;20033;-87
2021/03/26 01:40:53;;;;;;;37.70;19.90;;;;;;;-0.97;100.00;97982.72;5001812;28;20561;-85
2021/03/26 01:43:28;;;;;;;37.50;18.63;;;;;;;-0.97;100.00;97976.59;5001791;28;20029;-85
2021/03/26 01:45:54;;;;;;;37.47;18.38;;;;;;;-1.04;100.00;97988.03;5017923;28;20029;-86
2021/03/26 01:48:26;;;;;;;41.33;18.25;;;;;;;-1.08;100.00;97983.72;5001331;28;20401;-86
2021/03/26 01:50:54;;;;;;;37.88;19.38;;;;;;;-1.00;100.00;98003.75;5001452;28;20451;-86
2021/03/26 01:53:20;;;;;;;40.20;18.65;;;;;;;-1.03;100.00;97997.66;5001514;28;21142;-86
2021/03/26 01:55:47;;;;;;;36.33;18.30;;;;;;;-1.03;100.00;97998.53;5001563;28;20025;-86
2021/03/26 01:58:19;;;;;;;40.28;18.80;;;;;;;-1.05;100.00;97994.19;5001204;28;20029;-85
2021/03/26 02:00:47;;;;;;;32.50;17.70;;;;;;;-1.10;100.00;97986.31;5000760;28;20025;-86
2021/03/26 02:03:20;;;;;;;33.00;17.02;;;;;;;-1.06;100.00;98006.41;5000636;28;20025;-87
2021/03/26 02:05:47;;;;;;;34.75;19.00;;;;;;;-1.13;100.00;97996.84;5017491;28;20504;-86
2021/03/26 02:08:16;;;;;;;46.63;22.63;;;;;;;-1.06;100.00;98005.53;5001693;28;20032;-86
2021/03/26 02:10:43;;;;;;;52.55;24.15;;;;;;;-1.12;100.00;98003.84;5001517;28;20031;-86
2021/03/26 02:13:10;;;;;;;46.97;24.05;;;;;;;-1.07;100.00;98017.78;4998339;28;20076;-83
2021/03/26 02:15:40;;;;;;;49.10;22.48;;;;;;;-1.16;100.00;98004.75;5000339;28;20410;-85
2021/03/26 02:18:06;;;;;;;49.00;24.48;;;;;;;-1.10;100.00;98007.31;5000586;28;20492;-85
2021/03/26 02:20:35;;;;;;;47.45;23.58;;;;;;;-1.13;100.00;98009.97;5001167;28;20120;-86
2021/03/26 02:23:21;;;;;;;56.78;24.05;;;;;;;-1.24;100.00;98009.22;5017282;28;20210;-86
2021/03/26 02:25:47;;;;;;;53.13;24.83;;;;;;;-1.19;100.00;98013.53;5001307;28;20047;-86
2021/03/26 02:28:13;;;;;;;48.20;24.55;;;;;;;-1.30;100.00;98004.88;5000547;28;20397;-86
2021/03/26 02:30:43;;;;;;;50.88;23.85;;;;;;;-1.22;100.00;98017.94;5017158;28;20032;-86
2021/03/26 02:33:09;;;;;;;50.55;24.75;;;;;;;-1.20;100.00;98022.28;5000358;28;20060;-86
2021/03/26 02:35:41;;;;;;;54.45;25.52;;;;;;;-1.20;100.00;98026.69;5000750;28;20065;-86
2021/03/26 02:38:16;;;;;;;56.88;25.27;;;;;;;-1.26;100.00;98021.47;5000543;28;20021;-84
2021/03/26 02:40:48;;;;;;;50.42;23.95;;;;;;;-1.38;100.00;98008.44;5017608;28;20033;-85
2021/03/26 02:43:37;;;;;;;109.47;43.53;;;;;;;-1.24;100.00;98031.06;5000132;28;20021;-86
2021/03/26 02:46:14;;;;;;;85.60;35.83;;;;;;;-1.32;100.00;98011.00;5015891;28;20310;-86
2021/03/26 02:52:00;;;;;;;55.72;27.17;;;;;;;-1.35;100.00;98026.75;5019586;28;20045;-85
2021/03/26 02:55:02;;;;;;;43.60;22.42;;;;;;;-1.43;100.00;98023.34;5016502;28;20033;-86
2021/03/26 02:57:35;;;;;;;53.90;24.08;;;;;;;-1.40;100.00;98032.06;4998644;28;20520;-85
2021/03/26 03:00:07;;;;;;;46.92;21.60;;;;;;;-1.42;100.00;98038.22;5000244;28;20040;-86
2021/03/26 03:02:33;;;;;;;41.85;20.45;;;;;;;-1.51;100.00;98025.16;5016263;28;20554;-86
2021/03/26 03:05:04;;;;;;;43.42;21.10;;;;;;;-1.46;100.00;98034.72;5016318;28;20025;-86
2021/03/26 03:07:33;;;;;;;45.95;22.52;;;;;;;-1.55;100.00;98039.16;5016133;28;20087;-86
2021/03/26 03:10:15;;;;;;;43.15;20.70;;;;;;;-1.52;100.00;98045.25;4999874;28;20481;-85
2021/03/26 03:12:41;;;;;;;38.40;19.20;;;;;;;-1.61;100.00;98040.09;4999911;28;20104;-86
2021/03/26 03:15:16;;;;;;;36.67;19.60;;;;;;;-1.72;100.00;98045.38;5016269;28;20477;-86
2021/03/26 03:18:00;;;;;;;40.88;20.40;;;;;;;-1.69;100.00;98041.84;5033660;28;20477;-85
2021/03/26 03:20:37;;;;;;;40.10;19.27;;;;;;;-1.76;100.00;98046.28;5015924;28;20048;-85
2021/03/26 03:23:07;;;;;;;41.17;20.35;;;;;;;-1.77;100.00;98038.44;4999592;28;20481;-85
2021/03/26 03:25:33;;;;;;;38.15;19.42;;;;;;;-1.80;100.00;98049.81;5033510;28;20028;-85
2021/03/26 03:28:10;;;;;;;44.42;19.52;;;;;;;-1.78;100.00;98048.03;4999210;28;20094;-86
2021/03/26 03:31:19;;;;;;;40.17;18.70;;;;;;;-1.83;100.00;98038.47;5015609;28;20124;-86
2021/03/26 03:33:51;;;;;;;41.38;20.00;;;;;;;-1.90;100.00;98061.22;5014992;28;20073;-86
2021/03/26 03:36:22;;;;;;;43.30;21.23;;;;;;;-1.84;100.00;98057.69;5015229;28;20033;-86
2021/03/26 03:38:54;;;;;;;37.65;19.58;;;;;;;-1.90;100.00;98050.72;4999165;28;20041;-86
2021/03/26 03:41:27;;;;;;;42.97;19.90;;;;;;;-1.81;100.00;98063.78;4999227;28;20035;-84
2021/03/26 03:44:21;;;;;;;47.83;20.80;;;;;;;-1.83;100.00;98064.66;5016063;28;20116;-85
2021/03/26 03:46:53;;;;;;;57.80;22.85;;;;;;;-1.92;100.00;98067.34;5015580;28;20100;-85
2021/03/26 03:49:35;;;;;;;58.60;22.27;;;;;;;-1.87;100.00;98062.94;4999023;28;20029;-85
2021/03/26 03:52:12;;;;;;;46.88;21.48;;;;;;;-1.85;100.00;98077.81;5015232;28;20129;-85
2021/03/26 03:54:50;;;;;;;50.40;23.58;;;;;;;-1.89;100.00;98080.44;4999308;28;20041;-86
2021/03/26 03:57:20;;;;;;;58.53;24.63;;;;;;;-1.86;100.00;98086.53;4999088;28;20032;-86
2021/03/26 03:59:49;;;;;;;47.92;22.02;;;;;;;-1.86;100.00;98075.16;4999180;28;20047;-87
2021/03/26 04:02:29;;;;;;;56.55;25.42;;;;;;;-1.90;100.00;98081.28;4999217;28;20112;-86
2021/03/26 04:05:04;;;;;;;46.13;23.77;;;;;;;-1.85;100.00;98090.03;5015777;28;20029;-85
2021/03/26 04:08:15;;;;;;;57.60;24.13;;;;;;;-1.91;100.00;98083.06;5014666;28;20116;-86
2021/03/26 04:10:44;;;;;;;54.88;24.20;;;;;;;-1.87;100.00;98089.16;4968115;28;20448;-87
2021/03/26 04:13:16;;;;;;;52.00;24.90;;;;;;;-1.90;100.00;98086.53;4999576;28;20021;-86
2021/03/26 04:15:48;;;;;;;41.55;18.60;;;;;;;-1.87;100.00;98095.25;4998737;28;20033;-85
2021/03/26 04:18:17;;;;;;;60.33;28.92;;;;;;;-1.80;100.00;98090.88;4998879;28;20036;-85
2021/03/26 04:21:11;;;;;;;59.85;28.70;;;;;;;-1.77;100.00;98088.22;4998964;28;20468;-87
2021/03/26 04:23:42;;;;;;;59.33;28.27;;;;;;;-1.76;100.00;98090.00;4998588;28;20092;-85
2021/03/26 04:26:36;;;;;;;60.13;28.55;;;;;;;-1.72;100.00;98089.94;4998914;28;20560;-86
2021/03/26 04:29:14;;;;;;;54.30;27.52;;;;;;;-1.65;100.00;98096.91;4993214;28;20033;-86
2021/03/26 04:31:49;;;;;;;61.00;27.25;;;;;;;-1.65;100.00;98099.53;4999928;28;20038;-85
2021/03/26 04:34:16;;;;;;;55.63;26.02;;;;;;;-1.69;100.00;98089.94;5017122;28;20017;-87
2021/03/26 04:37:26;;;;;;;59.75;27.90;;;;;;;-1.55;100.00;98099.47;5016388;28;20487;-87
2021/03/26 04:39:56;;;;;;;61.83;29.27;;;;;;;-1.51;100.00;98103.84;4976931;28;20038;-87
2021/03/26 04:42:30;;;;;;;60.40;28.13;;;;;;;-1.56;100.00;98101.22;5002018;28;20036;-85
2021/03/26 04:45:04;;;;;;;60.83;28.75;;;;;;;-1.40;100.00;98112.50;4987329;28;20124;-86
2021/03/26 04:47:45;;;;;;;54.92;27.90;;;;;;;-1.48;100.00;98107.31;5013986;28;20036;-85
2021/03/26 04:50:21;;;;;;;51.83;23.65;;;;;;;-1.40;100.00;98116.00;5018628;28;20071;-86
2021/03/26 04:52:56;;;;;;;56.22;27.60;;;;;;;-1.35;100.00;98113.34;5002944;28;20057;-86
2021/03/26 04:55:29;;;;;;;56.83;27.75;;;;;;;-1.31;100.00;98115.06;5003420;28;20063;-86
2021/03/26 04:58:00;;;;;;;50.17;25.48;;;;;;;-1.15;100.00;98119.34;5003700;28;20029;-87
2021/03/26 05:00:30;;;;;;;58.47;27.23;;;;;;;-0.83;100.00;98111.25;5019583;28;20021;-86
2021/03/26 05:03:16;;;;;;;51.03;25.38;;;;;;;-0.45;99.15;98126.63;5002875;28;20037;-86
2021/03/26 05:05:54;;;;;;;52.55;25.90;;;;;;;-0.25;97.81;98125.59;5018127;28;20037;-86
2021/03/26 05:08:20;;;;;;;66.90;31.00;;;;;;;0.04;94.82;98120.00;5002245;28;20082;-86
2021/03/26 05:10:47;;;;;;;70.20;28.50;;;;;;;0.61;93.33;98130.69;5002062;28;20036;-86
2021/03/26 05:13:28;;;;;;;66.15;28.60;;;;;;;1.08;88.92;98134.38;5002808;28;20024;-85
2021/03/26 05:16:02;;;;;;;68.40;30.00;;;;;;;1.30;87.64;98139.31;4999611;28;20083;-86
2021/03/26 05:18:32;;;;;;;66.38;31.30;;;;;;;1.56;85.30;98151.19;4998887;28;20116;-87
2021/03/26 05:21:32;;;;;;;71.93;32.88;;;;;;;1.96;83.25;98135.53;4999196;28;20029;-86
2021/03/26 05:24:33;;;;;;;72.05;32.63;;;;;;;3.03;78.60;98140.34;4982698;28;20039;-87
2021/03/26 05:26:59;;;;;;;73.72;33.90;;;;;;;4.23;71.94;98151.41;5000412;28;20417;-87
2021/03/26 05:29:25;;;;;;;71.63;36.78;;;;;;;5.61;66.24;98149.03;4990296;28;20021;-85
2021/03/26 05:31:59;;;;;;;74.10;38.15;;;;;;;6.59;60.63;98158.91;5001574;28;20037;-86
2021/03/26 05:34:55;;;;;;;81.20;42.78;;;;;;;7.81;56.36;98161.25;5001409;28;20036;-87
2021/03/26 05:37:28;;;;;;;87.45;45.15;;;;;;;8.37;52.54;98156.19;5018852;28;20397;-86
2021/03/26 05:40:03;;;;;;;86.50;46.08;;;;;;;9.37;48.38;98164.97;5001770;28;21472;-85
2021/03/26 05:42:38;;;;;;;92.35;48.08;;;;;;;10.20;46.79;98171.56;5019373;28;20383;-87
2021/03/26 05:45:33;;;;;;;80.40;44.40;;;;;;;11.24;43.50;98169.63;5003579;28;20101;-87
2021/03/26 05:48:20;;;;;;;81.47;42.20;;;;;;;11.05;43.46;98168.88;4987891;28;20034;-87
2021/03/26 05:51:10;;;;;;;77.93;43.17;;;;;;;11.39;43.09;98179.47;5017547;28;20034;-85
2021/03/26 05:53:38;;;;;;;76.82;42.55;;;;;;;12.24;41.72;98183.53;5017446;28;20401;-86
2021/03/26 05:56:21;;;;;;;81.75;47.85;;;;;;;12.30;41.36;98190.41;5035760;28;20064;-87
2021/03/26 05:58:57;;;;;;;78.45;44.35;;;;;;;12.50;39.84;98179.34;5000283;28;20041;-88
2021/03/26 06:01:46;;;;;;;68.50;38.78;;;;;;;13.16;39.46;98190.53;5017132;28;20064;-87
2021/03/26 06:04:33;;;;;;;62.75;36.90;;;;;;;12.85;39.40;98196.03;4993456;28;20075;-89
2021/03/26 06:07:30;;;;;;;71.07;41.13;;;;;;;13.32;38.47;98193.97;5017097;28;20029;-84
2021/03/26 06:10:29;;;;;;;69.72;41.40;;;;;;;13.91;37.15;98194.66;5034518;28;20032;-84
2021/03/26 06:13:07;;;;;;;70.38;41.58;;;;;;;14.38;36.26;98197.84;5016266;28;20030;-83
2021/03/26 06:15:45;;;;;;;76.30;43.40;;;;;;;14.33;36.19;98194.59;5016027;28;20124;-83
2021/03/26 06:18:52;;;;;;;71.35;42.80;;;;;;;14.16;35.68;98194.81;5000946;28;20088;-85
2021/03/26 06:21:20;;;;;;;78.45;46.13;;;;;;;14.33;36.92;98202.66;5015104;28;20428;-83
2021/03/26 06:24:04;;;;;;;72.32;43.33;;;;;;;14.06;35.97;98193.66;5032414;28;20031;-86
2021/03/26 06:26:39;;;;;;;69.45;42.03;;;;;;;14.63;35.04;98188.97;5018867;28;20029;-85
2021/03/26 06:29:25;;;;;;;60.65;35.92;;;;;;;15.55;33.37;98190.56;5017219;28;20060;-85
2021/03/26 06:32:21;;;;;;;95.13;59.35;;;;;;;15.52;33.37;98201.56;5008269;28;20033;-85
2021/03/26 06:35:13;;;;;;;68.72;39.85;;;;;;;16.08;32.21;98204.69;5022271;28;20037;-85
2021/03/26 06:38:01;;;;;;;78.00;45.77;;;;;;;15.80;33.07;98205.84;5012401;28;20063;-85
2021/03/26 06:41:00;;;;;;;67.00;37.85;;;;;;;16.13;32.56;98202.50;5022036;28;20029;-86
2021/03/26 06:43:45;;;;;;;49.97;30.13;;;;;;;15.49;32.73;98196.38;5023563;28;20034;-86
2021/03/26 06:46:48;;;;;;;48.65;30.90;;;;;;;16.42;32.38;98206.63;5041575;28;20022;-84
2021/03/26 06:49:58;;;;;;;62.65;32.20;;;;;;;16.27;32.42;98156.47;5022182;28;20034;-86
2021/03/26 06:52:28;;;;;;;52.25;32.15;;;;;;;16.40;32.41;98216.63;5037359;28;20042;-85
2021/03/26 06:55:27;;;;;;;68.55;40.50;;;;;;;16.21;32.95;98198.25;5017679;28;20026;-85
2021/03/26 06:58:05;;;;;;;54.47;32.58;;;;;;;16.06;33.57;98225.50;5004574;28;20076;-83
2021/03/26 07:00:59;;;;;;;54.90;32.08;;;;;;;15.69;34.46;98227.31;5015603;28;20037;-85
2021/03/26 07:03:43;;;;;;;49.92;32.08;;;;;;;14.98;35.52;98232.34;5027165;28;20547;-85
2021/03/26 07:06:38;;;;;;;47.25;27.08;;;;;;;15.60;34.74;98234.22;5011506;28;20500;-89
2021/03/26 07:12:47;;;;;;;59.72;31.95;;;;;;;15.95;34.04;98230.84;5021054;28;20063;-83
2021/03/26 07:15:37;;;;;;;;;;;;;;;;;;;;;
2021/03/26 07:25:26;;;;;;;55.72;30.38;;;;;;;15.48;34.64;98237.81;5035492;28;20029;-81
2021/03/26 07:28:23;;;;;;;;;;;;;;;;;;;;;
2021/03/26 07:31:28;;;;;;;;;;;;;;;;;;;;;
2021/03/26 07:34:40;;;;;;;;;;;;;;;;;;;;;
2021/03/26 07:38:10;;;;;;;76.45;40.45;;;;;;;16.43;33.07;98186.72;5029655;28;20035;-81
2021/03/26 07:40:50;;;;;;;68.80;39.42;;;;;;;17.40;32.12;98238.69;5029826;28;20029;-85
2021/03/26 07:43:19;;;;;;;62.35;38.47;;;;;;;17.23;31.64;98241.81;5009469;28;20571;-76
2021/03/26 07:45:47;;;;;;;62.20;38.15;;;;;;;17.40;32.09;98248.63;5012898;28;20113;-76
2021/03/26 07:48:37;;;;;;;63.10;38.40;;;;;;;18.09;30.65;98234.06;5009775;28;20029;-76
2021/03/26 07:51:04;;;;;;;58.15;33.42;;;;;;;18.36;30.14;98243.47;5009017;28;20114;-76
2021/03/26 07:53:33;;;;;;;64.28;38.00;;;;;;;18.39;30.06;98245.09;5007993;28;20037;-75
2021/03/26 07:56:20;;;;;;;57.70;34.30;;;;;;;19.13;29.07;98232.53;5023467;28;20048;-76
2021/03/26 07:59:10;;;;;;;45.45;30.17;;;;;;;18.75;28.06;98228.50;5008455;28;20040;-77
2021/03/26 08:01:54;;;;;;;48.00;27.27;;;;;;;16.26;32.88;98241.13;5010724;28;20032;-77
2021/03/26 08:04:26;;;;;;;56.15;30.23;;;;;;;16.01;34.52;98241.19;5010944;28;20064;-79
2021/03/26 08:06:58;;;;;;;;;;;;;;;17.38;31.75;98253.31;5004935;28;20028;-75
2021/03/26 08:09:48;;;;;;;40.72;23.98;;;;;;;17.79;31.21;98248.22;5015086;28;19913;-81
2021/03/26 08:12:51;;;;;;;45.08;24.08;;;;;;;18.21;30.56;98254.72;5008136;28;20025;-83
2021/03/26 08:15:35;;;;;;;56.38;28.50;;;;;;;17.79;31.23;98256.31;5007184;28;20030;-81
2021/03/26 08:18:09;;;;;;;41.80;23.80;;;;;;;17.24;30.96;98254.38;5011723;28;20033;-81
2021/03/26 08:21:12;;;;;;;39.67;22.90;;;;;;;17.63;30.74;98256.69;5012042;28;20051;-81
2021/03/26 08:23:43;;;;;;;43.92;27.33;;;;;;;16.99;32.47;98233.78;5004578;28;20033;-80
2021/03/26 08:26:15;;;;;;;41.78;26.30;;;;;;;17.71;30.08;98251.53;4995973;28;20053;-81
2021/03/26 08:29:24;;;;;;;54.60;29.27;;;;;;;18.61;29.59;98244.22;5009613;28;20549;-83
2021/03/26 08:32:11;;;;;;;47.55;23.92;;;;;;;19.43;28.58;98238.94;4994524;28;20125;-82
2021/03/26 08:34:54;;;;;;;43.03;26.15;;;;;;;19.95;27.25;98213.47;5030059;28;20026;-82
2021/03/26 08:38:11;;;;;;;43.53;26.52;;;;;;;20.47;27.13;98249.56;5008822;28;20884;-82
2021/03/26 08:40:59;;;;;;;47.97;23.58;;;;;;;21.34;26.93;98245.94;5005870;28;20033;-81
2021/03/26 08:44:03;;;;;;;;;;;;;;;;;;;;;
2021/03/26 08:46:37;;;;;;;42.88;21.35;;;;;;;19.97;27.01;98240.47;5014438;28;20029;-81
2021/03/26 08:49:31;;;;;;;38.08;23.45;;;;;;;19.65;27.24;98237.91;4995236;28;20417;-81
2021/03/26 08:52:35;;;;;;;61.72;36.30;;;;;;;19.23;29.25;98233.44;4996654;28;20041;-80
2021/03/26 08:55:49;;;;;;;62.92;39.55;;;;;;;20.19;28.96;98253.88;5007166;28;20523;-79
2021/03/26 08:59:11;;;;;;;38.97;23.73;;;;;;;20.47;27.39;98244.13;5006941;28;20456;-79
2021/03/26 09:01:55;;;;;;;33.60;21.25;;;;;;;20.88;26.95;98230.31;5010569;28;20551;-80
2021/03/26 09:04:53;;;;;;;28.55;16.92;;;;;;;20.93;25.73;98241.63;4996971;28;20103;-82
2021/03/26 09:07:43;;;;;;;23.42;12.98;;;;;;;19.68;25.78;98234.94;4970919;28;20047;-77
2021/03/26 09:10:14;;;;;;;28.92;13.00;;;;;;;20.18;26.25;98233.13;5007602;28;20053;-77
2021/03/26 09:13:05;;;;;;;31.88;13.38;;;;;;;20.08;25.27;98220.53;5028378;28;20516;-77
2021/03/26 09:15:33;;;;;;;22.67;9.73;;;;;;;21.34;21.43;98206.97;5024703;28;20559;-77
2021/03/26 09:18:18;;;;;;;32.28;10.63;;;;;;;21.68;22.65;98202.75;5026615;28;20489;-76
2021/03/26 09:20:55;;;;;;;22.75;9.20;;;;;;;21.64;20.81;98195.88;5024678;28;20461;-76
2021/03/26 09:23:39;;;;;;;16.45;8.77;;;;;;;21.76;21.70;98191.09;5008755;28;20551;-77
2021/03/26 09:26:42;;;;;;;13.18;8.75;;;;;;;22.24;21.11;98190.91;5028403;28;20030;-77
2021/03/26 09:29:16;;;;;;;15.50;9.10;;;;;;;23.27;18.22;98181.25;5027978;28;20025;-77
2021/03/26 09:31:53;;;;;;;14.68;10.20;;;;;;;22.89;19.49;98187.91;5025337;28;20112;-76
2021/03/26 09:34:33;;;;;;;22.08;13.18;;;;;;;22.64;19.40;98181.31;5008680;28;20033;-78
2021/03/26 09:37:20;;;;;;;13.70;9.18;;;;;;;22.40;20.20;98191.09;4997879;28;20036;-77
2021/03/26 09:39:51;;;;;;;24.38;11.10;;;;;;;23.33;20.41;98190.66;5012057;28;20087;-76
2021/03/26 09:42:28;;;;;;;11.43;7.72;;;;;;;22.44;21.42;98193.38;4994117;28;20033;-76
2021/03/26 09:45:22;;;;;;;17.85;7.70;;;;;;;21.66;20.17;98191.13;5031203;28;20099;-77
2021/03/26 09:48:05;;;;;;;10.90;7.40;;;;;;;22.02;18.68;98175.81;5029821;28;20504;-76
2021/03/26 09:50:43;;;;;;;10.88;7.35;;;;;;;23.01;18.06;98164.81;5005367;28;20025;-77
2021/03/26 09:53:12;;;;;;;14.73;8.02;;;;;;;22.88;19.08;98171.69;5032181;28;20065;-77
2021/03/26 09:55:40;;;;;;;12.15;7.15;;;;;;;23.03;19.03;98178.31;5013024;28;20059;-76
2021/03/26 09:58:21;;;;;;;13.38;7.55;;;;;;;22.62;19.46;98168.84;5017820;28;20028;-76
2021/03/26 10:01:12;;;;;;;24.55;7.55;;;;;;;22.42;19.68;98178.19;4995178;28;20036;-77
2021/03/26 10:03:49;;;;;;;16.55;8.10;;;;;;;22.74;19.36;98175.81;5007537;28;20037;-76
2021/03/26 10:06:20;;;;;;;16.95;7.40;;;;;;;22.67;19.33;98159.19;5029052;28;20099;-77
2021/03/26 10:08:58;;;;;;;13.32;7.20;;;;;;;22.53;18.48;98161.59;5031635;28;20105;-78
2021/03/26 10:11:40;;;;;;;11.57;7.50;;;;;;;22.15;18.42;98151.78;5013256;28;20039;-78
2021/03/26 10:14:13;;;;;;;16.85;7.95;;;;;;;23.34;18.14;98168.69;5029065;28;20040;-78
2021/03/26 10:16:38;;;;;;;;;;;;;;;23.53;19.93;98186.75;5010384;28;20482;-78
2021/03/26 10:19:35;;;;;;;15.77;9.13;;;;;;;24.52;17.60;98163.31;5014543;28;19992;-80
2021/03/26 10:22:04;;;;;;;17.48;8.60;;;;;;;25.26;18.74;98164.13;5011563;28;20128;-80
2021/03/26 10:24:36;;;;;;;11.05;7.68;;;;;;;23.76;19.02;98160.59;4999555;28;20029;-79
2021/03/26 10:27:08;;;;;;;25.42;9.93;;;;;;;23.48;19.73;98172.72;4999501;28;20033;-78
2021/03/26 10:29:52;;;;;;;;;;;;;;;24.66;18.58;98173.63;5032984;28;20022;-78
2021/03/26 10:32:23;;;;;;;13.02;7.40;;;;;;;23.45;19.71;98175.75;5014475;28;19959;-78
2021/03/26 10:34:52;;;;;;;13.27;7.20;;;;;;;21.84;19.56;98155.81;4994838;28;20066;-77
2021/03/26 10:37:33;;;;;;;10.07;6.88;;;;;;;22.15;19.62;98163.53;5008782;28;20063;-77
2021/03/26 10:40:14;;;;;;;10.85;7.38;;;;;;;23.18;18.76;98155.75;5011925;28;20112;-80
2021/03/26 10:43:04;;;;;;;14.50;10.20;;;;;;;24.18;18.39;98166.97;5010217;28;20496;-81
2021/03/26 10:45:44;;;;;;;14.38;8.88;;;;;;;24.05;17.23;98147.44;5011264;28;20402;-78
2021/03/26 10:48:18;;;;;;;13.70;6.53;;;;;;;24.09;17.64;98148.78;4996637;28;20061;-77
2021/03/26 10:51:08;;;;;;;13.10;7.72;;;;;;;23.64;15.54;98135.44;5012693;28;20029;-76
2021/03/26 10:53:38;;;;;;;15.90;6.70;;;;;;;23.05;16.24;98125.28;4993892;28;20033;-76
2021/03/26 10:56:11;;;;;;;16.00;8.80;;;;;;;23.98;16.64;98135.44;5007539;28;20045;-76
2021/03/26 10:58:40;;;;;;;11.15;7.28;;;;;;;24.87;15.00;98138.44;4996103;28;20060;-76
2021/03/26 11:01:14;;;;;;;10.70;6.10;;;;;;;26.04;14.45;98141.56;5016483;28;20033;-76
2021/03/26 11:03:47;;;;;;;13.27;7.60;;;;;;;23.90;19.86;98142.75;4995652;28;20094;-75
2021/03/26 11:06:40;;;;;;;9.75;6.55;;;;;;;23.32;17.53;98150.75;5011885;28;20133;-77
2021/03/26 11:09:13;;;;;;;15.52;11.07;;;;;;;22.69;18.63;98142.69;5001984;28;20044;-78
2021/03/26 11:12:01;;;;;;;14.15;8.13;;;;;;;22.49;22.87;98154.72;4995674;28;20040;-77
2021/03/26 11:14:37;;;;;;;8.95;6.47;;;;;;;22.27;23.03;98163.34;5004415;28;20497;-76
2021/03/26 11:17:08;;;;;;;10.05;6.35;;;;;;;23.98;21.88;98160.03;5011494;28;20084;-75
2021/03/26 11:19:49;;;;;;;9.40;6.13;;;;;;;25.86;17.47;98155.50;5029245;28;20095;-76
2021/03/26 11:22:33;;;;;;;10.50;7.88;;;;;;;26.16;19.41;98141.03;4995016;28;20061;-75
2021/03/26 11:25:06;;;;;;;18.10;10.45;;;;;;;26.34;17.42;98129.78;5028850;28;20084;-76
2021/03/26 11:27:45;;;;;;;12.05;7.43;;;;;;;25.38;17.95;98134.50;4995253;28;20041;-75
2021/03/26 11:30:30;;;;;;;17.67;9.00;;;;;;;25.82;19.13;98144.03;5030265;28;20040;-90
2021/03/26 11:33:03;;;;;;;12.50;7.90;;;;;;;26.76;19.50;98143.09;5012110;28;20026;-80
2021/03/26 11:35:33;;;;;;;12.13;6.60;;;;;;;26.88;20.11;98130.69;5000141;28;20037;-82
2021/03/26 11:38:03;;;;;;;12.60;8.27;;;;;;;27.84;18.61;98144.59;4998652;28;20033;-79
2021/03/26 11:40:55;;;;;;;10.90;7.28;;;;;;;27.61;13.19;98110.78;5011989;28;20049;-79
2021/03/26 11:43:43;;;;;;;16.85;9.80;;;;;;;26.05;20.13;98115.84;5011546;28;20459;-77
2021/03/26 11:46:23;;;;;;;9.27;6.35;;;;;;;25.50;17.64;98113.94;5005710;28;20091;-79
2021/03/26 11:49:12;;;;;;;16.15;8.73;;;;;;;26.07;16.45;98108.28;5011016;28;20091;-78
2021/03/26 11:52:04;;;;;;;12.50;8.38;;;;;;;26.73;17.10;98111.34;5028527;28;20157;-78
2021/03/26 11:54:46;;;;;;;15.18;8.25;;;;;;;26.95;15.17;98095.09;5028150;28;20041;-78
2021/03/26 11:57:17;;;;;;;14.95;9.65;;;;;;;28.23;17.66;98112.16;5010759;28;20026;-79
2021/03/26 11:59:51;;;;;;;16.30;10.50;;;;;;;28.82;17.07;98101.00;5011474;28;20049;-77
2021/03/26 12:02:32;;;;;;;13.30;7.25;;;;;;;26.12;18.98;98090.25;5023920;28;20029;-81
2021/03/26 12:05:49;;;;;;;16.50;7.82;;;;;;;25.63;17.45;98091.47;5013634;28;20083;-78
2021/03/26 12:08:30;;;;;;;16.20;9.98;;;;;;;26.24;19.42;98097.06;4985615;28;20048;-79
2021/03/26 12:11:22;;;;;;;10.90;7.85;;;;;;;27.42;15.20;98088.31;5005367;28;20025;-78
2021/03/26 12:14:11;;;;;;;12.15;7.65;;;;;;;26.85;17.01;98078.88;5013030;28;20406;-79
2021/03/26 12:17:02;;;;;;;14.27;8.45;;;;;;;27.09;17.41;98088.78;5030357;28;20039;-79
2021/03/26 12:19:31;;;;;;;42.23;24.43;;;;;;;27.55;15.33;98078.56;5026229;28;20091;-79
2021/03/26 12:22:22;;;;;;;28.85;19.35;;;;;;;27.48;14.91;98083.09;5009888;28;20523;-79
2021/03/26 12:25:26;;;;;;;8.35;6.20;;;;;;;27.34;15.30;98071.88;5012526;28;20022;-79
2021/03/26 12:27:53;;;;;;;10.50;7.22;;;;;;;26.56;16.27;98081.44;4978768;28;20041;-82
2021/03/26 12:30:22;;;;;;;9.80;6.40;;;;;;;27.14;15.18;98067.94;4997071;28;20138;-81